createdAt,value
2023-01-09T00:01:38.324Z,99105.91
2023-01-09T00:04:08.121Z,99106.47
2023-01-09T00:06:36.170Z,99108.84
2023-01-09T00:09:05.649Z,99114.19
2023-01-09T00:11:34.239Z,99106.72
2023-01-09T00:14:02.201Z,99103.78
2023-01-09T00:16:30.224Z,99112.28
2023-01-09T00:18:58.183Z,99101.59
2023-01-09T00:21:26.136Z,99106.91
2023-01-09T00:23:55.176Z,99108.78
2023-01-09T00:26:24.656Z,99108.78
2023-01-09T00:28:54.207Z,99113.59
2023-01-09T00:31:22.802Z,99102.41
2023-01-09T00:33:56.254Z,99089.88
2023-01-09T00:36:24.257Z,99091.19
2023-01-09T00:38:52.330Z,99085.31
2023-01-09T00:41:23.216Z,99084.25
2023-01-09T00:43:55.976Z,99083.47
2023-01-09T00:46:30.342Z,99097.59
2023-01-09T00:48:58.933Z,99090.63
2023-01-09T00:51:27.870Z,99105.56
2023-01-09T00:53:56.125Z,99093.31
2023-01-09T00:56:25.823Z,99099.69
2023-01-09T00:58:55.731Z,99094.63
2023-01-09T01:01:23.924Z,99090.09
2023-01-09T01:03:51.940Z,99086.63
2023-01-09T01:06:39.601Z,99086.59
2023-01-09T01:09:07.717Z,99085.81
2023-01-09T01:11:36.006Z,99078.59
2023-01-09T01:14:05.343Z,99078.06
2023-01-09T01:16:33.959Z,99075.94
2023-01-09T01:19:01.865Z,99058.59
2023-01-09T01:21:29.873Z,99060.16
2023-01-09T01:23:57.831Z,99056.69
2023-01-09T01:26:25.691Z,99058.00
2023-01-09T01:28:53.612Z,99050.53
2023-01-09T01:31:22.883Z,99050.28
2023-01-09T01:33:50.797Z,99039.88
2023-01-09T01:36:18.749Z,99044.66
2023-01-09T01:38:47.961Z,99044.91
2023-01-09T01:41:29.385Z,99027.88
2023-01-09T01:43:58.820Z,99023.88
2023-01-09T01:46:29.040Z,99019.88
2023-01-09T01:49:01.517Z,99019.66
2023-01-09T01:51:34.161Z,99020.19
2023-01-09T01:54:07.560Z,99013.25
2023-01-09T01:56:39.061Z,98996.72
2023-01-09T01:59:10.800Z,98996.47
2023-01-09T02:01:44.052Z,98988.72
2023-01-09T02:04:12.977Z,98990.31
2023-01-09T02:06:42.255Z,98983.94
2023-01-09T02:09:10.538Z,98988.22
2023-01-09T02:11:38.385Z,98986.59
2023-01-09T02:14:06.398Z,98982.88
2023-01-09T02:16:48.287Z,98983.91
2023-01-09T02:19:39.605Z,98986.31
2023-01-09T02:22:15.314Z,98971.94
2023-01-09T02:25:09.452Z,98970.84
2023-01-09T02:28:11.006Z,98974.06
2023-01-09T02:30:46.826Z,98966.59
2023-01-09T02:33:40.551Z,98971.09
2023-01-09T02:36:28.863Z,98976.97
2023-01-09T02:39:07.179Z,98964.69
2023-01-09T02:41:41.841Z,98963.09
2023-01-09T02:44:17.835Z,98951.06
2023-01-09T02:46:47.255Z,98946.03
2023-01-09T02:49:17.819Z,98943.88
2023-01-09T02:51:53.510Z,98944.94
2023-01-09T02:54:36.056Z,98932.72
2023-01-09T02:57:23.137Z,98919.38
2023-01-09T03:00:04.983Z,98919.38
2023-01-09T03:02:46.711Z,98923.31
2023-01-09T03:05:22.812Z,98925.16
2023-01-09T03:07:59.842Z,98920.13
2023-01-09T03:10:33.381Z,98922.47
2023-01-09T03:13:03.486Z,98916.38
2023-01-09T03:15:35.776Z,98914.50
2023-01-09T03:18:06.202Z,98923.03
2023-01-09T03:20:34.618Z,98910.50
2023-01-09T03:23:03.972Z,98912.38
2023-01-09T03:25:32.998Z,98912.94
2023-01-09T03:28:03.055Z,98906.81
2023-01-09T03:30:32.690Z,98898.53
2023-01-09T03:33:01.354Z,98898.00
2023-01-09T03:35:30.805Z,98895.59
2023-01-09T03:37:59.050Z,98899.59
2023-01-09T03:40:27.188Z,98896.38
2023-01-09T03:42:55.154Z,98899.03
2023-01-09T03:45:23.168Z,98884.34
2023-01-09T03:47:52.957Z,98886.44
2023-01-09T03:50:21.101Z,98890.97
2023-01-09T03:52:50.521Z,98888.56
2023-01-09T03:55:18.666Z,98881.66
2023-01-09T03:57:46.660Z,98878.19
2023-01-09T04:00:15.468Z,98879.22
2023-01-09T04:02:43.851Z,98873.38
2023-01-09T04:05:11.907Z,98876.56
2023-01-09T04:07:39.956Z,98866.44
2023-01-09T04:10:11.035Z,98873.88
2023-01-09T04:12:39.222Z,98868.81
2023-01-09T04:15:08.343Z,98870.13
2023-01-09T04:17:36.379Z,98856.00
2023-01-09T04:20:05.041Z,98859.47
2023-01-09T04:22:32.989Z,98862.59
2023-01-09T04:25:00.930Z,98870.50
2023-01-09T04:27:30.289Z,98858.50
2023-01-09T04:29:58.240Z,98855.31
2023-01-09T04:32:27.613Z,98857.69
2023-01-09T04:34:55.552Z,98851.25
2023-01-09T04:37:24.654Z,98849.91
2023-01-09T04:39:54.906Z,98855.22
2023-01-09T04:42:22.993Z,98843.00
2023-01-09T04:44:54.089Z,98851.53
2023-01-09T04:47:22.187Z,98852.88
2023-01-09T04:49:50.166Z,98845.38
2023-01-09T04:52:18.142Z,98831.00
2023-01-09T04:54:46.149Z,98832.81
2023-01-09T04:57:14.085Z,98835.94
2023-01-09T04:59:42.014Z,98830.59
2023-01-09T05:02:12.133Z,98831.88
2023-01-09T05:04:40.173Z,98821.75
2023-01-09T05:07:08.127Z,98823.56
2023-01-09T05:09:36.224Z,98816.63
2023-01-09T05:12:04.292Z,98820.56
2023-01-09T05:14:32.319Z,98832.00
2023-01-09T05:17:00.295Z,98822.72
2023-01-09T05:19:29.591Z,98824.88
2023-01-09T05:21:57.624Z,98820.41
2023-01-09T05:24:25.528Z,98818.03
2023-01-09T05:26:53.485Z,98807.16
2023-01-09T05:29:21.519Z,98804.22
2023-01-09T05:31:49.668Z,98808.50
2023-01-09T05:34:17.615Z,98797.88
2023-01-09T05:36:47.010Z,98804.22
2023-01-09T05:39:15.078Z,98798.66
2023-01-09T05:41:43.072Z,98802.38
2023-01-09T05:44:10.983Z,98801.56
2023-01-09T05:46:38.934Z,98810.09
2023-01-09T05:49:06.936Z,98813.31
2023-01-09T05:51:35.199Z,98810.66
2023-01-09T05:54:05.764Z,98812.00
2023-01-09T05:56:33.819Z,98803.19
2023-01-09T05:59:01.962Z,98811.13
2023-01-09T06:01:29.994Z,98823.34
2023-01-09T06:03:57.913Z,98821.25
2023-01-09T06:06:26.056Z,98828.69
2023-01-09T06:08:54.048Z,98828.75
2023-01-09T06:11:23.421Z,98818.91
2023-01-09T06:13:51.373Z,98820.50
2023-01-09T06:16:19.526Z,98819.97
2023-01-09T06:18:47.555Z,98818.09
2023-01-09T06:21:15.539Z,98827.72
2023-01-09T06:23:43.423Z,98826.13
2023-01-09T06:26:11.474Z,98828.03
2023-01-09T06:28:40.820Z,98829.63
2023-01-09T06:31:08.843Z,98835.50
2023-01-09T06:33:36.781Z,98839.19
2023-01-09T06:36:05.224Z,98832.50
2023-01-09T06:38:33.199Z,98832.50
2023-01-09T06:41:01.123Z,98826.13
2023-01-09T06:43:29.086Z,98830.69
2023-01-09T06:45:58.405Z,98836.28
2023-01-09T06:48:26.512Z,98836.09
2023-01-09T06:50:55.125Z,98843.28
2023-01-09T06:53:23.055Z,98841.69
2023-01-09T06:55:51.095Z,98846.22
2023-01-09T06:58:19.427Z,98831.06
2023-01-09T07:00:49.370Z,98832.63
2023-01-09T07:03:19.941Z,98831.59
2023-01-09T07:05:48.211Z,98828.97
2023-01-09T07:08:16.642Z,98840.22
2023-01-09T07:10:44.711Z,98835.72
2023-01-09T07:13:12.856Z,98834.91
2023-01-09T07:15:40.893Z,98823.22
2023-01-09T07:18:08.945Z,98832.75
2023-01-09T07:20:40.889Z,98821.88
2023-01-09T07:23:09.231Z,98818.38
2023-01-09T07:25:37.379Z,98820.72
2023-01-09T07:28:05.699Z,98824.63
2023-01-09T07:30:33.906Z,98807.31
2023-01-09T07:33:03.912Z,98813.94
2023-01-09T07:35:32.109Z,98811.06
2023-01-09T07:38:01.492Z,98817.75
2023-01-09T07:40:29.577Z,98807.72
2023-01-09T07:42:57.640Z,98803.75
2023-01-09T07:45:25.572Z,98803.00
2023-01-09T07:47:53.491Z,98809.63
2023-01-09T07:50:21.923Z,98805.13
2023-01-09T07:52:49.870Z,98798.28
2023-01-09T07:55:19.295Z,98802.03
2023-01-09T07:57:50.189Z,98790.59
2023-01-09T08:00:21.087Z,98790.34
2023-01-09T08:02:53.144Z,98782.91
2023-01-09T08:05:21.660Z,98783.16
2023-01-09T08:07:50.629Z,98785.84
2023-01-09T08:10:20.779Z,98778.41
2023-01-09T08:12:49.288Z,98770.16
2023-01-09T08:15:17.583Z,98781.91
2023-01-09T08:17:46.891Z,98768.06
2023-01-09T08:20:16.970Z,98761.66
2023-01-09T08:22:49.627Z,98761.16
2023-01-09T08:25:19.797Z,98776.63
2023-01-09T08:27:48.191Z,98768.88
2023-01-09T08:30:17.257Z,98772.06
2023-01-09T08:32:49.448Z,98771.25
2023-01-09T08:35:17.553Z,98769.94
2023-01-09T08:37:46.148Z,98771.28
2023-01-09T08:40:14.662Z,98772.34
2023-01-09T08:43:01.456Z,98767.28
2023-01-09T08:45:46.732Z,98768.03
2023-01-09T08:48:14.685Z,98754.16
2023-01-09T08:50:43.590Z,98758.94
2023-01-09T08:53:12.815Z,98748.22
2023-01-09T08:55:40.819Z,98752.47
2023-01-09T08:58:10.206Z,98736.19
2023-01-09T09:00:38.088Z,98744.44
2023-01-09T09:03:06.331Z,98742.84
2023-01-09T09:05:34.662Z,98744.97
2023-01-09T09:08:03.616Z,98742.53
2023-01-09T09:10:32.004Z,98731.50
2023-01-09T09:13:00.877Z,98724.50
2023-01-09T09:15:30.498Z,98723.97
2023-01-09T09:18:00.753Z,98711.19
2023-01-09T09:20:31.835Z,98711.88
2023-01-09T09:23:00.024Z,98697.97
2023-01-09T09:25:28.917Z,98694.72
2023-01-09T09:27:57.129Z,98695.16
2023-01-09T09:30:25.772Z,98702.78
2023-01-09T09:32:55.072Z,98703.44
2023-01-09T09:35:23.362Z,98704.59
2023-01-09T09:37:55.538Z,98695.25
2023-01-09T09:40:36.559Z,98692.31
2023-01-09T09:43:57.280Z,98674.25
2023-01-09T09:46:35.737Z,98669.00
2023-01-09T09:49:11.618Z,98669.84
2023-01-09T09:51:58.296Z,98671.63
2023-01-09T09:54:32.765Z,98661.53
2023-01-09T09:57:03.955Z,98663.19
2023-01-09T09:59:36.930Z,98649.19
2023-01-09T10:02:15.508Z,98645.78
2023-01-09T10:04:52.985Z,98650.16
2023-01-09T10:07:25.144Z,98646.34
2023-01-09T10:09:57.551Z,98635.81
2023-01-09T10:12:31.233Z,98622.34
2023-01-09T10:15:02.044Z,98613.91
2023-01-09T10:17:48.724Z,98608.47
2023-01-09T10:20:41.663Z,98611.16
2023-01-09T10:23:23.015Z,98603.13
2023-01-09T10:25:57.795Z,98595.84
2023-01-09T10:28:50.217Z,98595.03
2023-01-09T10:31:27.986Z,98595.19
2023-01-09T10:34:10.189Z,98583.63
2023-01-09T10:36:56.331Z,98575.25
2023-01-09T10:39:28.652Z,98558.69
2023-01-09T10:42:03.179Z,98567.56
2023-01-09T10:44:37.473Z,98564.97
2023-01-09T10:47:12.434Z,98547.19
2023-01-09T10:49:40.953Z,98538.81
2023-01-09T10:52:18.214Z,98533.91
2023-01-09T10:54:53.769Z,98525.28
2023-01-09T10:57:38.397Z,98527.97
2023-01-09T11:00:08.714Z,98529.28
2023-01-09T11:02:37.154Z,98522.75
2023-01-09T11:05:05.304Z,98520.72
2023-01-09T11:07:38.838Z,98518.88
2023-01-09T11:10:09.806Z,98506.34
2023-01-09T11:12:38.054Z,98503.47
2023-01-09T11:15:31.344Z,98510.31
2023-01-09T11:18:18.858Z,98509.25
2023-01-09T11:20:47.171Z,98510.84
2023-01-09T11:23:31.726Z,98506.53
2023-01-09T11:26:02.781Z,98496.59
2023-01-09T11:28:31.289Z,98490.44
2023-01-09T11:31:01.692Z,98477.72
2023-01-09T11:33:32.202Z,98481.59
2023-01-09T11:36:08.106Z,98473.25
2023-01-09T11:38:50.538Z,98464.41
2023-01-09T11:41:21.171Z,98467.28
2023-01-09T11:43:51.956Z,98458.69
2023-01-09T11:46:38.658Z,98469.00
2023-01-09T11:49:22.620Z,98464.94
2023-01-09T11:52:12.993Z,98449.84
2023-01-09T11:54:46.391Z,98438.00
2023-01-09T11:57:14.502Z,98439.41
2023-01-09T11:59:42.595Z,98435.44
2023-01-09T12:02:39.368Z,98450.84
2023-01-09T12:05:21.325Z,98447.19
2023-01-09T12:08:11.253Z,98444.00
2023-01-09T12:10:56.250Z,98436.56
2023-01-09T12:13:41.227Z,98440.81
2023-01-09T12:16:16.217Z,98445.28
2023-01-09T12:18:56.283Z,98436.81
2023-01-09T12:21:41.399Z,98434.84
2023-01-09T12:24:26.249Z,98426.50
2023-01-09T12:27:10.659Z,98430.25
2023-01-09T12:29:58.278Z,98418.16
2023-01-09T12:32:41.315Z,98405.69
2023-01-09T12:35:22.846Z,98398.63
2023-01-09T12:38:15.275Z,98402.06
2023-01-09T12:41:22.900Z,98397.25
2023-01-09T12:44:09.951Z,98407.00
2023-01-09T12:46:47.294Z,98404.69
2023-01-09T12:49:29.057Z,98404.50
2023-01-09T12:52:06.463Z,98394.16
2023-01-09T12:54:42.244Z,98396.84
2023-01-09T12:57:17.153Z,98380.44
2023-01-09T12:59:52.632Z,98389.97
2023-01-09T13:02:27.908Z,98384.41
2023-01-09T13:05:01.691Z,98388.88
2023-01-09T13:07:35.184Z,98386.22
2023-01-09T13:10:10.183Z,98385.59
2023-01-09T13:12:40.679Z,98383.69
2023-01-09T13:15:28.905Z,98376.78
2023-01-09T13:18:03.343Z,98378.72
2023-01-09T13:20:38.922Z,98382.09
2023-01-09T13:23:08.079Z,98380.56
2023-01-09T13:25:44.762Z,98379.47
2023-01-09T13:28:21.044Z,98378.88
2023-01-09T13:31:03.550Z,98375.59
2023-01-09T13:33:36.423Z,98380.03
2023-01-09T13:36:05.843Z,98383.50
2023-01-09T13:38:36.588Z,98392.38
2023-01-09T13:41:30.399Z,98388.41
2023-01-09T13:44:01.096Z,98389.19
2023-01-09T13:46:38.415Z,98394.53
2023-01-09T13:49:08.953Z,98399.13
2023-01-09T13:51:56.814Z,98384.44
2023-01-09T13:55:01.948Z,98384.25
2023-01-09T13:57:32.150Z,98385.34
2023-01-09T14:00:20.822Z,98381.38
2023-01-09T14:02:57.562Z,98373.94
2023-01-09T14:06:12.003Z,98387.66
2023-01-09T14:08:45.008Z,98394.09
2023-01-09T14:11:21.850Z,98390.13
2023-01-09T14:14:03.657Z,98386.66
2023-01-09T14:16:32.940Z,98373.75
2023-01-09T14:19:08.061Z,98367.28
2023-01-09T14:21:48.256Z,98376.25
2023-01-09T14:24:26.559Z,98371.50
2023-01-09T14:26:57.260Z,98358.22
2023-01-09T14:29:47.512Z,98358.16
2023-01-09T14:32:47.270Z,98359.66
2023-01-09T14:35:26.489Z,98368.13
2023-01-09T14:38:17.678Z,98358.59
2023-01-09T14:40:50.125Z,98354.31
2023-01-09T14:43:25.806Z,98352.84
2023-01-09T14:45:57.864Z,98357.22
2023-01-09T14:48:27.702Z,98349.50
2023-01-09T14:51:00.028Z,98342.84
2023-01-09T14:53:32.581Z,98347.41
2023-01-09T14:56:06.023Z,98333.53
2023-01-09T14:58:34.944Z,98339.78
2023-01-09T15:01:05.408Z,98334.53
2023-01-09T15:03:39.364Z,98323.16
2023-01-09T15:06:14.697Z,98323.25
2023-01-09T15:08:46.818Z,98319.88
2023-01-09T15:11:15.694Z,98319.69
2023-01-09T15:13:47.925Z,98304.31
2023-01-09T15:16:19.849Z,98296.00
2023-01-09T15:18:52.333Z,98279.34
2023-01-09T15:21:25.651Z,98290.03
2023-01-09T15:23:54.217Z,98291.72
2023-01-09T15:26:27.777Z,98296.25
2023-01-09T15:29:02.437Z,98312.78
2023-01-09T15:31:30.869Z,98301.81
2023-01-09T15:33:58.903Z,98283.09
2023-01-09T15:36:31.005Z,98280.09
2023-01-09T15:39:00.474Z,98284.16
2023-01-09T15:41:47.826Z,98275.34
2023-01-09T15:44:20.465Z,98291.72
2023-01-09T15:46:50.957Z,98298.34
2023-01-09T15:49:20.258Z,98295.38
2023-01-09T15:51:51.525Z,98294.56
2023-01-09T15:54:28.572Z,98285.53
2023-01-09T15:56:56.481Z,98281.88
2023-01-09T15:59:27.283Z,98273.16
2023-01-09T16:02:16.011Z,98284.25
2023-01-09T16:04:44.098Z,98283.03
2023-01-09T16:07:16.956Z,98271.91
2023-01-09T16:09:47.507Z,98265.06
2023-01-09T16:12:21.150Z,98266.25
2023-01-09T16:14:53.674Z,98261.19
2023-01-09T16:17:26.572Z,98265.13
2023-01-09T16:19:57.901Z,98270.50
2023-01-09T16:22:29.167Z,98273.47
2023-01-09T16:24:58.894Z,98259.78
2023-01-09T16:27:28.780Z,98260.69
2023-01-09T16:29:59.496Z,98263.56
2023-01-09T16:32:30.145Z,98266.75
2023-01-09T16:34:59.930Z,98257.81
2023-01-09T16:37:30.036Z,98250.91
2023-01-09T16:40:36.280Z,98235.97
2023-01-09T16:43:05.426Z,98243.00
2023-01-09T16:45:35.539Z,98245.16
2023-01-09T16:48:04.769Z,98243.59
2023-01-09T16:50:32.758Z,98232.03
2023-01-09T16:53:08.313Z,98229.47
2023-01-09T16:55:36.379Z,98235.44
2023-01-09T16:58:04.405Z,98239.28
2023-01-09T17:00:32.344Z,98225.31
2023-01-09T17:03:00.818Z,98222.84
2023-01-09T17:05:28.787Z,98231.16
2023-01-09T17:07:57.137Z,98227.97
2023-01-09T17:10:26.533Z,98215.50
2023-01-09T17:12:54.482Z,98213.91
2023-01-09T17:15:22.545Z,98217.69
2023-01-09T17:17:50.477Z,98220.06
2023-01-09T17:20:19.297Z,98220.06
2023-01-09T17:22:47.299Z,98223.22
2023-01-09T17:25:33.852Z,98221.84
2023-01-09T17:28:21.875Z,98213.22
2023-01-09T17:30:49.990Z,98209.66
2023-01-09T17:33:19.851Z,98208.56
2023-01-09T17:35:48.121Z,98209.56
2023-01-09T17:38:16.467Z,98214.31
2023-01-09T17:40:45.465Z,98207.28
2023-01-09T17:43:14.884Z,98214.72
2023-01-09T17:45:43.227Z,98207.69
2023-01-09T17:48:22.204Z,98207.09
2023-01-09T17:50:50.390Z,98210.72
2023-01-09T17:53:20.732Z,98211.50
2023-01-09T17:55:48.767Z,98202.69
2023-01-09T17:58:27.151Z,98201.03
2023-01-09T18:00:55.155Z,98197.25
2023-01-09T18:03:26.119Z,98203.38
2023-01-09T18:05:54.518Z,98186.25
2023-01-09T18:08:24.016Z,98179.50
2023-01-09T18:10:51.983Z,98188.00
2023-01-09T18:13:20.478Z,98193.47
2023-01-09T18:15:52.499Z,98176.44
2023-01-09T18:18:22.503Z,98174.25
2023-01-09T18:20:51.301Z,98181.69
2023-01-09T18:23:19.715Z,98189.72
2023-01-09T18:25:48.435Z,98177.41
2023-01-09T18:28:17.082Z,98181.59
2023-01-09T18:30:47.518Z,98169.50
2023-01-09T18:33:17.709Z,98161.75
2023-01-09T18:35:46.676Z,98168.66
2023-01-09T18:38:15.587Z,98148.06
2023-01-09T18:40:43.541Z,98155.78
2023-01-09T18:43:12.194Z,98145.06
2023-01-09T18:45:40.453Z,98139.44
2023-01-09T18:48:09.629Z,98145.56
2023-01-09T18:50:38.981Z,98135.84
2023-01-09T18:53:07.457Z,98138.41
2023-01-09T18:55:37.579Z,98134.94
2023-01-09T18:58:05.958Z,98135.22
2023-01-09T19:00:33.995Z,98135.66
2023-01-09T19:03:01.867Z,98143.91
2023-01-09T19:05:29.888Z,98128.25
2023-01-09T19:07:59.241Z,98129.06
2023-01-09T19:10:27.274Z,98134.84
2023-01-09T19:12:55.251Z,98140.63
2023-01-09T19:15:23.293Z,98134.75
2023-01-09T19:17:51.817Z,98136.44
2023-01-09T19:20:20.211Z,98140.81
2023-01-09T19:22:48.255Z,98132.38
2023-01-09T19:25:17.754Z,98123.97
2023-01-09T19:27:45.648Z,98114.47
2023-01-09T19:30:14.670Z,98118.34
2023-01-09T19:32:42.662Z,98112.31
2023-01-09T19:35:10.745Z,98124.47
2023-01-09T19:37:38.791Z,98121.13
2023-01-09T19:40:07.848Z,98123.38
2023-01-09T19:42:37.427Z,98132.88
2023-01-09T19:45:06.444Z,98126.53
2023-01-09T19:47:36.191Z,98115.63
2023-01-09T19:50:05.227Z,98111.47
2023-01-09T19:52:33.291Z,98113.44
2023-01-09T19:55:01.453Z,98111.84
2023-01-09T19:57:29.453Z,98114.03
2023-01-09T19:59:58.859Z,98124.72
2023-01-09T20:02:28.206Z,98121.16
2023-01-09T20:04:56.344Z,98118.59
2023-01-09T20:07:24.382Z,98114.03
2023-01-09T20:09:52.245Z,98123.53
2023-01-09T20:12:20.253Z,98111.47
2023-01-09T20:14:48.265Z,98112.28
2023-01-09T20:17:17.953Z,98110.38
2023-01-09T20:19:46.286Z,98111.88
2023-01-09T20:22:14.420Z,98109.91
2023-01-09T20:24:42.396Z,98103.41
2023-01-09T20:27:10.291Z,98097.66
2023-01-09T20:29:38.299Z,98094.06
2023-01-09T20:32:07.735Z,98091.63
2023-01-09T20:34:37.471Z,98091.03
2023-01-09T20:37:05.412Z,98080.22
2023-01-09T20:39:33.409Z,98077.44
2023-01-09T20:42:01.507Z,98086.13
2023-01-09T20:44:29.504Z,98068.44
2023-01-09T20:46:57.702Z,98062.97
2023-01-09T20:49:25.744Z,98056.25
2023-01-09T20:51:55.225Z,98055.63
2023-01-09T20:54:23.922Z,98057.22
2023-01-09T20:56:51.901Z,98058.78
2023-01-09T20:59:22.198Z,98061.47
2023-01-09T21:01:50.621Z,98055.03
2023-01-09T21:04:19.120Z,98057.41
2023-01-09T21:06:49.631Z,98043.53
2023-01-09T21:09:20.291Z,98052.81
2023-01-09T21:11:48.226Z,98036.00
2023-01-09T21:14:16.173Z,98036.78
2023-01-09T21:16:53.522Z,98044.81
2023-01-09T21:19:22.577Z,98049.19
2023-01-09T21:21:53.076Z,98047.47
2023-01-09T21:24:22.784Z,98049.75
2023-01-09T21:26:50.795Z,98046.66
2023-01-09T21:29:18.744Z,98042.31
2023-01-09T21:31:46.815Z,98032.06
2023-01-09T21:34:17.492Z,98042.47
2023-01-09T21:36:48.696Z,98042.97
2023-01-09T21:39:17.473Z,98045.34
2023-01-09T21:42:04.302Z,98037.81
2023-01-09T21:44:49.373Z,98040.97
2023-01-09T21:47:17.341Z,98042.25
2023-01-09T21:49:46.024Z,98033.91
2023-01-09T21:52:15.034Z,98028.28
2023-01-09T21:54:43.199Z,98022.00
2023-01-09T21:57:13.011Z,98021.38
2023-01-09T21:59:41.145Z,98014.94
2023-01-09T22:02:12.449Z,98017.63
2023-01-09T22:04:42.824Z,98023.16
2023-01-09T22:07:11.289Z,98009.94
2023-01-09T22:09:40.162Z,98005.09
2023-01-09T22:12:08.569Z,97996.44
2023-01-09T22:14:38.956Z,97992.03
2023-01-09T22:17:07.535Z,97984.81
2023-01-09T22:19:35.547Z,97981.66
2023-01-09T22:22:07.274Z,97979.47
2023-01-09T22:24:35.319Z,97976.31
2023-01-09T22:27:03.260Z,97979.66
2023-01-09T22:29:31.319Z,97984.09
2023-01-09T22:32:00.710Z,97973.38
2023-01-09T22:34:29.017Z,97969.28
2023-01-09T22:36:56.943Z,97967.88
2023-01-09T22:39:25.472Z,97972.75
2023-01-09T22:41:55.260Z,97979.19
2023-01-09T22:44:26.194Z,97981.09
2023-01-09T22:46:54.128Z,97978.53
2023-01-09T22:49:23.639Z,97973.91
2023-01-09T22:51:52.135Z,97965.22
2023-01-09T22:54:20.998Z,97976.25
2023-01-09T22:56:50.604Z,97969.63
2023-01-09T22:59:18.547Z,97961.09
2023-01-09T23:01:46.552Z,97957.94
2023-01-09T23:04:15.957Z,97963.28
2023-01-09T23:06:45.384Z,97965.66
2023-01-09T23:09:13.439Z,97967.25
2023-01-09T23:11:59.226Z,97952.56
2023-01-09T23:14:27.232Z,97955.56
2023-01-09T23:16:56.083Z,97946.88
2023-01-09T23:19:24.150Z,97958.97
2023-01-09T23:21:53.504Z,97955.19
2023-01-09T23:24:21.483Z,97952.22
2023-01-09T23:26:49.941Z,97946.88
2023-01-09T23:29:17.906Z,97939.97
2023-01-09T23:31:46.366Z,97943.09
2023-01-09T23:34:15.904Z,97934.59
2023-01-09T23:36:43.921Z,97940.31
2023-01-09T23:39:13.499Z,97938.47
2023-01-09T23:41:59.476Z,97939.94
2023-01-09T23:44:27.482Z,97945.63
2023-01-09T23:46:55.723Z,97927.84
2023-01-09T23:49:23.729Z,97932.59
2023-01-09T23:51:51.668Z,97935.72
2023-01-09T23:54:21.055Z,97939.53
2023-01-09T23:56:49.062Z,97941.09
2023-01-09T23:59:18.107Z,97939.84
